Terminal Aerodrome Forecast
Issued by NWS

Home | Current Version | Previous Version | Text Only | Print | Product List | Glossary On
Versions: 1 2 3 4 5 6 7 8 9 10 11 12 13 14 15 16
358
FTUS43 KBIS 110522
TAFDIK
TAF
KDIK 110522Z 1106/1206 09004KT 6SM BR OVC006
     FM110900 11004KT P6SM -SN OVC006
     FM111200 14005KT 1SM -SN BR OVC003
     FM111800 12006KT 2SM -SN OVC008
     FM112000 05005KT 3SM -SN OVC008
     FM120000 02006KT P6SM VCSH OVC010=

USA.gov is the U.S. government's official web portal to all federal, state and local government web resources and services.